createdAt,value
2019-05-22T00:00:00.236Z,7.50
2019-05-22T00:02:41.398Z,8.73
2019-05-22T00:05:34.460Z,8.17
2019-05-22T00:08:09.168Z,8.33
2019-05-22T00:10:43.365Z,8.63
2019-05-22T00:13:19.056Z,8.77
2019-05-22T00:15:53.946Z,8.17
2019-05-22T00:18:25.482Z,8.77
2019-05-22T00:20:57.289Z,8.53
2019-05-22T00:23:30.393Z,8.37
2019-05-22T00:26:03.102Z,9.03
2019-05-22T00:28:36.537Z,8.90
2019-05-22T00:31:09.282Z,8.07
2019-05-22T00:33:41.428Z,9.40
2019-05-22T00:36:14.164Z,8.73
2019-05-22T00:38:46.948Z,9.67
2019-05-22T00:41:20.856Z,9.17
2019-05-22T00:43:53.295Z,9.20
2019-05-22T00:46:25.261Z,8.13
2019-05-22T00:48:57.754Z,9.40
2019-05-22T00:51:55.303Z,9.60
2019-05-22T00:54:44.380Z,9.20
2019-05-22T00:57:41.867Z,9.07
2019-05-22T01:00:27.924Z,9.47
2019-05-22T01:03:00.734Z,9.27
2019-05-22T01:05:32.874Z,8.73
2019-05-22T01:08:06.975Z,8.33
2019-05-22T01:10:40.055Z,8.80
2019-05-22T01:13:11.707Z,9.00
2019-05-22T01:15:45.677Z,9.43
2019-05-22T01:18:18.785Z,8.77
2019-05-22T01:20:52.865Z,9.93
2019-05-22T01:23:26.109Z,9.77
2019-05-22T01:26:01.227Z,9.00
2019-05-22T01:28:36.063Z,9.87
2019-05-22T01:31:15.536Z,8.73
2019-05-22T01:34:13.046Z,8.77
2019-05-22T01:36:48.023Z,8.93
2019-05-22T01:39:39.392Z,9.27
2019-05-22T01:42:15.807Z,9.83
2019-05-22T01:45:00.910Z,10.40
2019-05-22T01:47:36.314Z,9.37
2019-05-22T01:50:10.102Z,8.97
2019-05-22T01:52:43.412Z,9.40
2019-05-22T01:55:15.024Z,10.00
2019-05-22T01:57:47.496Z,9.00
2019-05-22T02:00:20.774Z,9.80
2019-05-22T02:02:53.446Z,10.90
2019-05-22T02:05:25.505Z,9.40
2019-05-22T02:07:57.661Z,10.93
2019-05-22T02:10:34.327Z,10.17
2019-05-22T02:13:10.050Z,9.63
2019-05-22T02:15:43.902Z,11.10
2019-05-22T02:18:19.361Z,10.37
2019-05-22T02:20:52.310Z,10.20
2019-05-22T02:23:25.355Z,10.30
2019-05-22T02:25:57.746Z,9.70
2019-05-22T02:28:29.798Z,11.30
2019-05-22T02:31:02.161Z,9.97
2019-05-22T02:33:33.663Z,10.40
2019-05-22T02:36:06.244Z,10.17
2019-05-22T02:38:40.123Z,9.03
2019-05-22T02:41:14.273Z,9.10
2019-05-22T02:43:45.547Z,9.57
2019-05-22T02:46:18.790Z,8.53
2019-05-22T02:48:52.728Z,8.93
2019-05-22T02:51:25.534Z,8.37
2019-05-22T02:53:59.964Z,9.30
2019-05-22T02:56:36.153Z,8.97
2019-05-22T02:59:08.958Z,8.67
2019-05-22T03:01:40.591Z,9.03
2019-05-22T03:04:14.647Z,9.80
2019-05-22T03:06:46.798Z,8.70
2019-05-22T03:09:22.144Z,8.93
2019-05-22T03:12:04.066Z,7.80
2019-05-22T03:14:37.969Z,8.10
2019-05-22T03:17:25.055Z,8.50
2019-05-22T03:19:59.915Z,10.40
2019-05-22T03:22:37.874Z,7.90
2019-05-22T03:25:13.567Z,7.63
2019-05-22T03:27:49.271Z,8.47
2019-05-22T03:30:27.290Z,8.63
2019-05-22T03:33:01.398Z,9.83
2019-05-22T03:35:39.037Z,9.17
2019-05-22T03:38:10.789Z,6.97
2019-05-22T03:40:44.115Z,6.30
2019-05-22T03:43:22.851Z,7.00
2019-05-22T03:45:57.176Z,8.63
2019-05-22T03:48:35.425Z,6.87
2019-05-22T03:51:15.102Z,6.97
2019-05-22T03:53:47.723Z,6.20
2019-05-22T03:56:20.283Z,7.53
2019-05-22T03:58:53.463Z,6.17
2019-05-22T04:01:26.398Z,6.33
2019-05-22T04:03:59.591Z,5.20
2019-05-22T04:06:33.417Z,5.20
2019-05-22T04:09:17.380Z,5.20
2019-05-22T04:11:49.778Z,4.90
2019-05-22T04:14:24.771Z,4.87
2019-05-22T04:16:57.379Z,5.67
2019-05-22T04:19:47.613Z,5.20
2019-05-22T04:22:02.946Z,4.60
2019-05-22T04:24:35.018Z,4.87
2019-05-22T04:27:07.655Z,4.57
2019-05-22T04:29:39.099Z,5.07
2019-05-22T04:32:31.050Z,5.40
2019-05-22T04:35:05.321Z,5.20
2019-05-22T04:37:37.405Z,4.87
2019-05-22T04:40:53.406Z,10.60
2019-05-22T04:43:32.260Z,5.10
2019-05-22T04:46:10.128Z,5.53
2019-05-22T04:48:45.872Z,6.00
2019-05-22T04:51:25.363Z,6.73
2019-05-22T04:53:58.715Z,7.47
2019-05-22T04:56:30.809Z,7.53
2019-05-22T04:59:03.831Z,7.43
2019-05-22T05:01:36.439Z,7.90
2019-05-22T05:04:08.683Z,8.97
2019-05-22T05:06:42.179Z,9.10
2019-05-22T05:09:15.103Z,8.90
2019-05-22T05:11:46.756Z,8.90
2019-05-22T05:14:18.554Z,8.83
2019-05-22T05:16:50.963Z,7.63
2019-05-22T05:19:23.382Z,8.23
2019-05-22T05:21:56.382Z,8.57
2019-05-22T05:24:28.090Z,8.57
2019-05-22T05:27:01.057Z,8.47
2019-05-22T05:29:33.725Z,9.20
2019-05-22T05:32:06.415Z,9.43
2019-05-22T05:35:00.083Z,8.60
2019-05-22T05:37:32.098Z,9.07
2019-05-22T05:40:43.132Z,8.97
2019-05-22T05:43:19.169Z,9.23
2019-05-22T05:45:52.625Z,9.60
2019-05-22T05:48:26.119Z,10.07
2019-05-22T05:51:45.532Z,9.83
2019-05-22T05:54:20.609Z,10.70
2019-05-22T05:56:52.451Z,9.77
2019-05-22T05:59:26.570Z,10.03
2019-05-22T06:02:00.819Z,11.50
2019-05-22T06:04:37.180Z,10.67
2019-05-22T06:07:20.990Z,10.67
2019-05-22T06:10:39.629Z,11.03
2019-05-22T06:13:11.763Z,11.47
2019-05-22T06:16:33.006Z,12.17
2019-05-22T06:19:06.605Z,12.57
2019-05-22T06:21:44.451Z,12.03
2019-05-22T06:24:27.706Z,13.37
2019-05-22T06:27:25.119Z,12.40
2019-05-22T06:30:06.529Z,13.47
2019-05-22T06:33:17.693Z,12.60
2019-05-22T06:35:52.750Z,12.63
2019-05-22T06:38:56.495Z,13.70
2019-05-22T06:41:33.424Z,13.53
2019-05-22T06:44:31.186Z,13.50
2019-05-22T06:47:04.496Z,14.13
2019-05-22T06:49:47.790Z,14.30
2019-05-22T06:52:19.560Z,14.20
2019-05-22T06:54:52.346Z,16.47
2019-05-22T06:57:33.533Z,14.07
2019-05-22T07:00:16.719Z,14.37
2019-05-22T07:02:48.618Z,14.83
2019-05-22T07:05:20.440Z,14.80
2019-05-22T07:07:52.274Z,15.97
2019-05-22T07:10:26.271Z,14.77
2019-05-22T07:13:01.065Z,13.60
2019-05-22T07:15:46.456Z,16.27
2019-05-22T07:18:24.335Z,16.77
2019-05-22T07:20:58.253Z,14.57
2019-05-22T07:23:33.315Z,15.63
2019-05-22T07:26:06.411Z,17.40
2019-05-22T07:28:38.768Z,15.80
2019-05-22T07:31:11.753Z,19.07
2019-05-22T07:33:43.686Z,16.63
2019-05-22T07:36:17.290Z,17.03
2019-05-22T07:38:49.084Z,19.10
2019-05-22T07:41:21.255Z,16.23
2019-05-22T07:43:52.977Z,16.17
2019-05-22T07:46:25.759Z,16.07
2019-05-22T07:48:58.943Z,16.77
2019-05-22T07:51:31.661Z,15.70
2019-05-22T07:54:04.349Z,17.20
2019-05-22T07:56:38.469Z,17.00
2019-05-22T07:59:10.991Z,16.97
2019-05-22T08:01:43.795Z,15.50
2019-05-22T08:04:17.186Z,14.67
2019-05-22T08:06:48.944Z,14.47
2019-05-22T08:09:22.886Z,15.10
2019-05-22T08:11:54.797Z,17.07
2019-05-22T08:14:28.934Z,14.57
2019-05-22T08:17:02.720Z,15.37
2019-05-22T08:19:34.522Z,15.87
2019-05-22T08:22:07.781Z,14.83
2019-05-22T08:24:39.911Z,14.90
2019-05-22T08:27:12.607Z,16.53
2019-05-22T08:29:45.714Z,16.03
2019-05-22T08:32:19.364Z,16.57
2019-05-22T08:34:52.012Z,14.43
2019-05-22T08:37:31.811Z,16.03
2019-05-22T08:40:05.413Z,16.43
2019-05-22T08:42:39.304Z,14.80
2019-05-22T08:45:12.340Z,15.33
2019-05-22T08:47:44.679Z,16.77
2019-05-22T08:50:22.525Z,16.07
2019-05-22T08:52:54.282Z,18.60
2019-05-22T08:55:27.670Z,15.70
2019-05-22T08:58:00.360Z,18.53
2019-05-22T09:00:33.617Z,16.13
2019-05-22T09:03:05.270Z,16.43
2019-05-22T09:05:36.874Z,17.97
2019-05-22T09:08:08.407Z,16.27
2019-05-22T09:10:40.101Z,17.93
2019-05-22T09:13:13.149Z,16.87
2019-05-22T09:15:44.809Z,15.97
2019-05-22T09:18:16.274Z,16.23
2019-05-22T09:20:50.041Z,15.80
2019-05-22T09:23:21.958Z,16.47
2019-05-22T09:25:53.531Z,15.87
2019-05-22T09:28:25.666Z,17.23
2019-05-22T09:30:57.201Z,16.67
2019-05-22T09:33:30.390Z,14.13
2019-05-22T09:36:01.919Z,13.20
2019-05-22T09:38:33.768Z,14.27
2019-05-22T09:41:06.358Z,13.47
2019-05-22T09:43:37.939Z,15.20
2019-05-22T09:46:11.359Z,13.77
2019-05-22T09:48:42.951Z,12.73
2019-05-22T09:51:14.484Z,12.17
2019-05-22T09:53:48.235Z,13.87
2019-05-22T09:56:20.873Z,12.50
2019-05-22T09:58:52.843Z,13.20
2019-05-22T10:01:24.746Z,14.07
2019-05-22T10:03:56.470Z,12.77
2019-05-22T10:06:28.104Z,12.77
2019-05-22T10:09:00.111Z,12.47
2019-05-22T10:11:32.899Z,12.83
2019-05-22T10:14:07.500Z,11.90
2019-05-22T10:16:39.564Z,14.40
2019-05-22T10:19:11.231Z,13.20
2019-05-22T10:21:44.323Z,12.90
2019-05-22T10:24:16.635Z,11.57
2019-05-22T10:26:50.715Z,11.73
2019-05-22T10:29:23.558Z,12.50
2019-05-22T10:31:55.224Z,11.00
2019-05-22T10:34:27.699Z,11.30
2019-05-22T10:37:00.169Z,11.80
2019-05-22T10:39:32.990Z,12.20
2019-05-22T10:42:04.636Z,12.40
2019-05-22T10:44:36.583Z,10.47
2019-05-22T10:47:10.185Z,12.13
2019-05-22T10:49:42.229Z,11.23
2019-05-22T10:52:14.007Z,11.57
2019-05-22T10:54:46.439Z,12.33
2019-05-22T10:57:18.427Z,12.50
2019-05-22T10:59:50.001Z,11.10
2019-05-22T11:02:21.989Z,10.97
2019-05-22T11:04:54.050Z,11.07
2019-05-22T11:07:26.700Z,11.27
2019-05-22T11:09:58.495Z,11.27
2019-05-22T11:12:30.868Z,12.93
2019-05-22T11:15:02.691Z,10.33
2019-05-22T11:17:34.591Z,9.87
2019-05-22T11:20:07.679Z,10.63
2019-05-22T11:22:39.247Z,12.03
2019-05-22T11:25:13.328Z,10.80
2019-05-22T11:28:02.770Z,10.37
2019-05-22T11:30:34.766Z,11.20
2019-05-22T11:33:08.529Z,9.47
2019-05-22T11:35:41.214Z,9.40
2019-05-22T11:38:13.012Z,10.20
2019-05-22T11:40:44.696Z,10.10
2019-05-22T11:43:17.233Z,9.40
2019-05-22T11:45:49.172Z,9.80
2019-05-22T11:48:21.492Z,10.00
2019-05-22T11:50:54.243Z,8.85
2019-05-22T11:53:25.925Z,9.23
2019-05-22T11:55:58.963Z,10.07
2019-05-22T11:58:31.057Z,9.63
2019-05-22T12:01:02.763Z,9.53
2019-05-22T12:03:36.453Z,10.00
2019-05-22T12:06:08.699Z,10.40
2019-05-22T12:08:40.640Z,11.13
2019-05-22T12:11:17.851Z,9.37
2019-05-22T12:13:50.029Z,9.43
2019-05-22T12:16:23.219Z,9.70
2019-05-22T12:18:58.310Z,9.67
2019-05-22T12:21:28.553Z,9.27
2019-05-22T12:24:00.175Z,10.40
2019-05-22T12:26:32.390Z,8.87
2019-05-22T12:29:05.107Z,9.73
2019-05-22T12:31:36.661Z,8.53
2019-05-22T12:34:08.565Z,10.17
2019-05-22T12:36:41.842Z,9.63
2019-05-22T12:39:15.174Z,8.88
2019-05-22T12:41:49.878Z,9.70
2019-05-22T12:44:21.807Z,11.63
2019-05-22T12:46:53.574Z,10.30
2019-05-22T12:49:27.747Z,9.13
2019-05-22T12:52:01.321Z,10.23
2019-05-22T12:54:46.032Z,10.00
2019-05-22T12:57:08.064Z,9.20
2019-05-22T12:59:40.044Z,9.70
2019-05-22T13:02:11.890Z,9.33
2019-05-22T13:04:43.648Z,9.60
2019-05-22T13:07:16.773Z,10.20
2019-05-22T13:09:49.970Z,10.00
2019-05-22T13:12:22.647Z,8.87
2019-05-22T13:15:09.173Z,9.93
2019-05-22T13:17:28.949Z,9.57
2019-05-22T13:20:03.887Z,9.73
2019-05-22T13:22:37.754Z,8.67
2019-05-22T13:25:12.686Z,8.77
2019-05-22T13:27:46.120Z,8.40
2019-05-22T13:30:21.359Z,8.50
2019-05-22T13:32:57.058Z,8.20
2019-05-22T13:35:29.395Z,8.07
2019-05-22T13:38:01.280Z,7.90
2019-05-22T13:40:34.858Z,7.65
2019-05-22T13:43:06.498Z,7.10
2019-05-22T13:45:39.951Z,7.85
2019-05-22T13:48:13.614Z,7.37
2019-05-22T13:50:46.807Z,7.17
2019-05-22T13:53:20.250Z,7.83
2019-05-22T13:55:52.696Z,6.65
2019-05-22T13:58:26.964Z,7.10
2019-05-22T14:00:59.128Z,7.60
2019-05-22T14:03:31.784Z,7.87
2019-05-22T14:06:05.030Z,7.22
2019-05-22T14:08:37.367Z,7.13
2019-05-22T14:11:10.131Z,8.03
2019-05-22T14:13:42.398Z,7.58
2019-05-22T14:16:15.186Z,8.38
2019-05-22T14:18:47.673Z,7.15
2019-05-22T14:21:22.183Z,7.63
2019-05-22T14:23:53.819Z,7.43
2019-05-22T14:26:29.581Z,7.33
2019-05-22T14:29:00.498Z,7.30
2019-05-22T14:31:32.589Z,7.87
2019-05-22T14:34:05.622Z,8.10
2019-05-22T14:36:37.406Z,8.43
2019-05-22T14:39:10.538Z,8.13
2019-05-22T14:41:42.147Z,7.13
2019-05-22T14:44:13.947Z,7.13
2019-05-22T14:46:45.527Z,6.93
2019-05-22T14:49:20.706Z,7.37
2019-05-22T14:51:51.724Z,8.10
2019-05-22T14:54:25.061Z,6.50
2019-05-22T14:56:57.747Z,6.30
2019-05-22T14:59:30.183Z,6.57
2019-05-22T15:02:04.331Z,7.90
2019-05-22T15:04:37.588Z,6.90
2019-05-22T15:07:09.587Z,7.53
2019-05-22T15:09:41.804Z,8.50
2019-05-22T15:12:13.774Z,8.83
2019-05-22T15:14:49.628Z,7.40
2019-05-22T15:17:32.355Z,7.43
2019-05-22T15:19:55.272Z,7.60
2019-05-22T15:22:27.203Z,7.20
2019-05-22T15:25:01.048Z,7.03
2019-05-22T15:27:32.699Z,8.93
2019-05-22T15:30:04.839Z,7.63
2019-05-22T15:32:37.157Z,8.03
2019-05-22T15:35:10.535Z,8.43
2019-05-22T15:37:43.964Z,7.80
2019-05-22T15:40:17.957Z,7.20
2019-05-22T15:42:49.990Z,7.03
2019-05-22T15:45:24.413Z,7.40
2019-05-22T15:47:58.695Z,8.67
2019-05-22T15:50:33.897Z,8.60
2019-05-22T15:53:13.434Z,8.70
2019-05-22T15:55:45.829Z,6.73
2019-05-22T15:58:19.632Z,6.77
2019-05-22T16:00:53.312Z,6.80
2019-05-22T16:03:28.412Z,7.07
2019-05-22T16:06:00.590Z,7.80
2019-05-22T16:08:33.898Z,8.63
2019-05-22T16:11:09.230Z,7.20
2019-05-22T16:13:42.255Z,7.77
2019-05-22T16:16:17.009Z,7.63
2019-05-22T16:18:52.548Z,7.70
2019-05-22T16:21:29.466Z,9.03
2019-05-22T16:24:02.267Z,9.03
2019-05-22T16:26:34.152Z,8.93
2019-05-22T16:29:07.280Z,8.30
2019-05-22T16:31:40.176Z,7.90
2019-05-22T16:34:12.885Z,8.10
2019-05-22T16:36:47.140Z,7.77
2019-05-22T16:39:20.908Z,8.00
2019-05-22T16:41:54.157Z,7.67
2019-05-22T16:44:27.785Z,6.90
2019-05-22T16:47:01.295Z,6.70
2019-05-22T16:49:34.945Z,6.57
2019-05-22T16:52:09.122Z,7.83
2019-05-22T16:54:43.137Z,7.00
2019-05-22T16:57:16.212Z,7.40
2019-05-22T16:59:48.852Z,7.67
2019-05-22T17:02:21.779Z,8.17
2019-05-22T17:04:54.633Z,8.10
2019-05-22T17:07:28.345Z,9.13
2019-05-22T17:10:02.595Z,8.13
2019-05-22T17:12:35.422Z,8.70
2019-05-22T17:15:09.507Z,9.03
2019-05-22T17:17:41.300Z,8.40
2019-05-22T17:20:15.168Z,8.57
2019-05-22T17:22:46.968Z,8.00
2019-05-22T17:25:21.183Z,8.73
2019-05-22T17:27:52.734Z,7.63
2019-05-22T17:30:27.716Z,7.30
2019-05-22T17:33:01.040Z,7.30
2019-05-22T17:35:32.915Z,6.43
2019-05-22T17:38:06.591Z,6.50
2019-05-22T17:40:38.356Z,7.57
2019-05-22T17:43:12.110Z,7.83
2019-05-22T17:45:44.987Z,7.20
2019-05-22T17:48:19.379Z,7.13
2019-05-22T17:50:51.182Z,7.37
2019-05-22T17:53:24.311Z,5.93
2019-05-22T17:55:56.691Z,5.97
2019-05-22T17:58:30.168Z,6.03
2019-05-22T18:01:02.677Z,5.47
2019-05-22T18:03:34.944Z,5.80
2019-05-22T18:06:07.374Z,5.67
2019-05-22T18:08:39.612Z,5.13
2019-05-22T18:11:11.477Z,5.90
2019-05-22T18:13:59.524Z,6.00
2019-05-22T18:16:32.821Z,5.20
2019-05-22T18:19:07.076Z,6.00
2019-05-22T18:21:40.304Z,6.33
2019-05-22T18:24:13.375Z,5.50
2019-05-22T18:26:45.648Z,5.90
2019-05-22T18:29:17.230Z,7.03
2019-05-22T18:31:48.707Z,6.13
2019-05-22T18:34:20.311Z,7.13
2019-05-22T18:36:51.799Z,6.27
2019-05-22T18:39:24.555Z,5.93
2019-05-22T18:41:56.059Z,6.77
2019-05-22T18:44:27.597Z,6.47
2019-05-22T18:46:59.514Z,6.80
2019-05-22T18:49:31.061Z,6.47
2019-05-22T18:52:03.068Z,6.10
2019-05-22T18:54:35.034Z,6.33
2019-05-22T18:57:06.591Z,6.07
2019-05-22T18:59:38.187Z,6.90
2019-05-22T19:02:10.956Z,6.10
2019-05-22T19:04:43.059Z,6.03
2019-05-22T19:07:15.967Z,5.90
2019-05-22T19:09:47.603Z,4.97
2019-05-22T19:12:19.569Z,4.83
2019-05-22T19:14:52.224Z,5.40
2019-05-22T19:17:24.522Z,5.30
2019-05-22T19:19:57.115Z,4.60
2019-05-22T19:22:28.729Z,4.50
2019-05-22T19:25:00.376Z,4.40
2019-05-22T19:27:32.131Z,4.40
2019-05-22T19:30:03.764Z,3.73
2019-05-22T19:32:35.403Z,4.07
2019-05-22T19:35:07.844Z,4.27
2019-05-22T19:37:39.735Z,4.40
2019-05-22T19:40:12.892Z,4.63
2019-05-22T19:42:44.465Z,4.57
2019-05-22T19:45:18.029Z,4.47
2019-05-22T19:47:56.980Z,4.17
2019-05-22T19:50:29.351Z,4.70
2019-05-22T19:53:17.673Z,4.20
2019-05-22T19:55:34.790Z,4.93
2019-05-22T19:58:09.668Z,4.20
2019-05-22T20:00:41.660Z,4.00
2019-05-22T20:03:15.292Z,3.90
2019-05-22T20:05:46.998Z,3.63
2019-05-22T20:08:18.543Z,3.53
2019-05-22T20:10:50.515Z,4.00
2019-05-22T20:13:25.049Z,3.97
2019-05-22T20:15:56.624Z,3.40
2019-05-22T20:18:28.802Z,4.20
2019-05-22T20:21:01.612Z,3.37
2019-05-22T20:23:36.545Z,3.77
2019-05-22T20:26:07.615Z,4.10
2019-05-22T20:28:39.907Z,4.17
2019-05-22T20:31:11.495Z,3.20
2019-05-22T20:33:43.465Z,3.97
2019-05-22T20:36:15.260Z,2.73
2019-05-22T20:38:47.203Z,3.50
2019-05-22T20:41:20.329Z,3.63
2019-05-22T20:43:53.000Z,3.30
2019-05-22T20:46:25.303Z,3.17
2019-05-22T20:48:57.340Z,2.60
2019-05-22T20:51:29.443Z,4.03
2019-05-22T20:54:03.057Z,3.07
2019-05-22T20:56:37.612Z,3.07
2019-05-22T20:59:10.604Z,3.10
2019-05-22T21:01:42.479Z,2.47
2019-05-22T21:04:16.128Z,2.80
2019-05-22T21:07:00.053Z,2.53
2019-05-22T21:09:31.594Z,3.37
2019-05-22T21:12:05.265Z,2.70
2019-05-22T21:14:38.005Z,2.37
2019-05-22T21:17:10.789Z,2.40
2019-05-22T21:19:43.389Z,2.13
2019-05-22T21:22:19.850Z,2.87
2019-05-22T21:24:53.589Z,2.53
2019-05-22T21:27:25.996Z,2.60
2019-05-22T21:29:58.289Z,2.47
2019-05-22T21:32:30.057Z,2.40
2019-05-22T21:35:01.961Z,2.73
2019-05-22T21:37:33.989Z,2.70
2019-05-22T21:40:09.165Z,2.37
2019-05-22T21:42:42.099Z,2.70
2019-05-22T21:45:14.259Z,2.80
2019-05-22T21:47:46.140Z,2.30
2019-05-22T21:50:20.109Z,2.63
2019-05-22T21:52:52.823Z,2.33
2019-05-22T21:55:25.554Z,1.73
2019-05-22T21:57:58.045Z,2.73
2019-05-22T22:00:50.909Z,2.73
2019-05-22T22:03:26.895Z,2.50
2019-05-22T22:06:00.219Z,2.23
2019-05-22T22:08:31.731Z,2.10
2019-05-22T22:11:05.274Z,1.90
2019-05-22T22:13:39.486Z,2.10
2019-05-22T22:16:12.106Z,2.07
2019-05-22T22:18:44.187Z,2.20
2019-05-22T22:21:16.661Z,2.30
2019-05-22T22:23:48.419Z,2.43
2019-05-22T22:26:25.729Z,2.00
2019-05-22T22:28:53.286Z,2.50
2019-05-22T22:31:27.342Z,2.47
2019-05-22T22:34:07.115Z,2.00
2019-05-22T22:36:38.766Z,2.77
2019-05-22T22:39:12.322Z,2.17
2019-05-22T22:41:46.225Z,2.70
2019-05-22T22:44:21.062Z,2.63
2019-05-22T22:46:58.673Z,2.37
2019-05-22T22:49:30.281Z,2.83
2019-05-22T22:52:02.226Z,2.73
2019-05-22T22:54:34.919Z,3.07
2019-05-22T22:57:07.105Z,4.10
2019-05-22T22:59:39.001Z,3.13
2019-05-22T23:02:14.827Z,3.33
2019-05-22T23:04:47.466Z,3.57
2019-05-22T23:07:19.717Z,3.80
2019-05-22T23:09:51.324Z,3.83
2019-05-22T23:12:22.821Z,4.53
2019-05-22T23:14:57.599Z,4.97
2019-05-22T23:17:30.237Z,4.53
2019-05-22T23:20:00.259Z,3.20
2019-05-22T23:22:30.075Z,3.83
2019-05-22T23:25:04.405Z,4.00
2019-05-22T23:27:38.896Z,4.53
2019-05-22T23:30:10.954Z,4.23
2019-05-22T23:32:44.571Z,4.30
2019-05-22T23:35:17.442Z,4.30
2019-05-22T23:37:49.547Z,5.27
2019-05-22T23:40:27.732Z,4.77
2019-05-22T23:43:02.339Z,4.87
2019-05-22T23:45:36.444Z,4.27
2019-05-22T23:48:16.440Z,4.70
2019-05-22T23:50:50.144Z,4.90
2019-05-22T23:53:24.101Z,5.40
2019-05-22T23:55:56.156Z,5.27
2019-05-22T23:58:28.239Z,5.37
